ADDS TAF Data INFO
IDs: Format: Raw Decoded Include METARs

Data at: 0631 UTC 15 Dec 2017

KLAL 150520Z 1506/1606 00000KT P6SM SCT045 BKN060
  FM151500 22005KT P6SM FEW025 BKN050
  FM151900 25007KT P6SM SCT035 BKN050
  FM152200 27008KT P6SM SCT050 SCT250
  FM160200 VRB03KT P6SM FEW040 SCT250 AMD NOT SKED TIL 151200